createdAt,value
2022-10-22T00:00:50.437Z,12.80
2022-10-22T00:03:17.916Z,14.60
2022-10-22T00:05:45.550Z,12.82
2022-10-22T00:08:14.669Z,13.10
2022-10-22T00:10:42.939Z,14.25
2022-10-22T00:13:11.841Z,13.30
2022-10-22T00:15:39.769Z,13.18
2022-10-22T00:18:07.461Z,13.50
2022-10-22T00:20:35.238Z,13.27
2022-10-22T00:23:02.806Z,13.90
2022-10-22T00:25:32.131Z,14.02
2022-10-22T00:27:59.752Z,12.10
2022-10-22T00:30:27.449Z,13.45
2022-10-22T00:32:55.111Z,13.50
2022-10-22T00:35:22.615Z,11.82
2022-10-22T00:37:50.192Z,13.55
2022-10-22T00:40:17.720Z,13.40
2022-10-22T00:42:46.639Z,14.05
2022-10-22T00:45:20.340Z,12.50
2022-10-22T00:47:54.349Z,11.88
2022-10-22T00:50:26.074Z,10.90
2022-10-22T00:52:55.297Z,11.13
2022-10-22T00:55:24.221Z,11.80
2022-10-22T00:57:55.096Z,11.90
2022-10-22T01:00:23.333Z,12.10
2022-10-22T01:02:52.427Z,12.73
2022-10-22T01:05:20.760Z,11.98
2022-10-22T01:07:50.339Z,10.07
2022-10-22T01:10:29.221Z,13.70
2022-10-22T01:13:09.493Z,12.77
2022-10-22T01:15:44.717Z,12.48
2022-10-22T01:18:22.331Z,12.38
2022-10-22T01:21:03.286Z,14.10
2022-10-22T01:23:52.129Z,13.73
2022-10-22T01:26:29.165Z,12.32
2022-10-22T01:29:08.366Z,13.80
2022-10-22T01:31:40.739Z,12.32
2022-10-22T01:34:10.682Z,13.70
2022-10-22T01:36:39.398Z,13.75
2022-10-22T01:39:08.393Z,11.18
2022-10-22T01:41:36.674Z,11.93
2022-10-22T01:44:05.870Z,12.05
2022-10-22T01:46:33.639Z,11.55
2022-10-22T01:49:13.987Z,13.15
2022-10-22T01:51:55.652Z,13.38
2022-10-22T01:54:33.244Z,13.43
2022-10-22T01:57:09.803Z,12.65
2022-10-22T01:59:50.410Z,12.07
2022-10-22T02:02:34.685Z,12.77
2022-10-22T02:05:06.311Z,13.00
2022-10-22T02:07:39.568Z,12.45
2022-10-22T02:10:10.236Z,12.35
2022-10-22T02:12:39.860Z,13.02
2022-10-22T02:15:11.648Z,13.27
2022-10-22T02:17:40.806Z,12.38
2022-10-22T02:20:14.093Z,14.95
2022-10-22T02:22:42.842Z,13.65
2022-10-22T02:25:12.491Z,14.30
2022-10-22T02:27:44.552Z,14.07
2022-10-22T02:32:55.665Z,12.13
2022-10-22T02:35:26.016Z,12.75
2022-10-22T02:37:56.331Z,12.95
2022-10-22T02:40:24.266Z,12.10
2022-10-22T02:42:52.428Z,11.75
2022-10-22T02:45:22.017Z,11.82
2022-10-22T02:47:49.857Z,12.13
2022-10-22T02:50:17.741Z,12.02
2022-10-22T02:52:45.376Z,10.52
2022-10-22T02:55:12.914Z,10.88
2022-10-22T02:57:40.752Z,10.85
2022-10-22T03:00:10.391Z,10.90
2022-10-22T03:02:39.359Z,9.50
2022-10-22T03:05:08.121Z,11.18
2022-10-22T03:07:35.810Z,11.02
2022-10-22T03:10:03.434Z,11.52
2022-10-22T03:12:31.192Z,11.60
2022-10-22T03:14:58.809Z,12.85
2022-10-22T03:17:26.454Z,11.73
2022-10-22T03:19:55.355Z,11.43
2022-10-22T03:22:25.939Z,10.95
2022-10-22T03:24:58.314Z,11.15
2022-10-22T03:27:28.348Z,9.25
2022-10-22T03:29:57.804Z,10.15
2022-10-22T03:32:25.428Z,10.82
2022-10-22T03:34:52.957Z,10.95
2022-10-22T03:37:22.409Z,10.80
2022-10-22T03:39:50.223Z,9.90
2022-10-22T03:42:18.114Z,10.75
2022-10-22T03:44:45.700Z,9.80
2022-10-22T03:47:13.514Z,10.73
2022-10-22T03:49:41.178Z,11.60
2022-10-22T03:52:09.782Z,11.10
2022-10-22T03:54:39.905Z,11.52
2022-10-22T03:57:07.993Z,11.93
2022-10-22T03:59:36.922Z,11.15
2022-10-22T04:02:04.946Z,10.07
2022-10-22T04:04:32.525Z,9.52
2022-10-22T04:07:00.214Z,10.55
2022-10-22T04:09:27.718Z,11.52
2022-10-22T04:11:56.612Z,9.88
2022-10-22T04:14:24.315Z,9.60
2022-10-22T04:16:51.865Z,9.90
2022-10-22T04:19:19.461Z,8.75
2022-10-22T04:21:46.967Z,8.93
2022-10-22T04:24:14.526Z,9.77
2022-10-22T04:26:42.743Z,9.05
2022-10-22T04:29:15.892Z,9.93
2022-10-22T04:31:44.326Z,10.57
2022-10-22T04:34:11.828Z,9.80
2022-10-22T04:36:39.509Z,9.73
2022-10-22T04:39:07.426Z,10.63
2022-10-22T04:41:39.777Z,11.27
2022-10-22T04:44:12.244Z,10.60
2022-10-22T04:46:45.065Z,10.88
2022-10-22T04:49:12.803Z,11.10
2022-10-22T04:51:40.373Z,10.60
2022-10-22T04:54:07.905Z,11.40
2022-10-22T04:56:35.610Z,11.32
2022-10-22T04:59:05.442Z,11.25
2022-10-22T05:01:37.060Z,9.98
2022-10-22T05:04:11.698Z,8.43
2022-10-22T05:06:39.398Z,9.48
2022-10-22T05:09:08.702Z,9.25
2022-10-22T05:11:38.821Z,9.32
2022-10-22T05:14:09.394Z,8.95
2022-10-22T05:16:38.045Z,10.32
2022-10-22T05:19:06.129Z,10.65
2022-10-22T05:21:35.495Z,12.18
2022-10-22T05:24:04.017Z,11.05
2022-10-22T05:26:31.596Z,11.23
2022-10-22T05:28:59.107Z,11.27
2022-10-22T05:31:28.750Z,12.00
2022-10-22T05:33:56.911Z,9.95
2022-10-22T05:36:24.635Z,10.48
2022-10-22T05:38:54.041Z,9.43
2022-10-22T05:41:23.088Z,11.20
2022-10-22T05:43:51.037Z,10.88
2022-10-22T05:46:22.740Z,10.75
2022-10-22T05:48:51.676Z,10.25
2022-10-22T05:51:20.195Z,10.85
2022-10-22T05:53:51.554Z,12.05
2022-10-22T05:56:20.549Z,11.40
2022-10-22T05:58:48.558Z,10.68
2022-10-22T06:01:18.541Z,10.13
2022-10-22T06:03:46.496Z,10.80
2022-10-22T06:06:20.538Z,10.50
2022-10-22T06:08:49.531Z,11.27
2022-10-22T06:11:18.429Z,11.73
2022-10-22T06:13:48.202Z,10.63
2022-10-22T06:16:15.979Z,12.13
2022-10-22T06:18:43.528Z,12.52
2022-10-22T06:21:14.025Z,11.48
2022-10-22T06:23:42.129Z,11.95
2022-10-22T06:26:10.872Z,12.70
2022-10-22T06:28:38.832Z,11.18
2022-10-22T06:31:08.008Z,11.20
2022-10-22T06:33:42.161Z,12.02
2022-10-22T06:36:11.600Z,10.65
2022-10-22T06:38:39.513Z,12.23
2022-10-22T06:41:08.745Z,12.68
2022-10-22T06:43:36.594Z,12.52
2022-10-22T06:46:07.170Z,12.07
2022-10-22T06:48:37.877Z,12.23
2022-10-22T06:51:07.737Z,12.35
2022-10-22T06:53:35.898Z,12.20
2022-10-22T06:56:06.984Z,11.82
2022-10-22T06:58:34.620Z,11.70
2022-10-22T07:01:03.760Z,11.65
2022-10-22T07:03:31.642Z,13.13
2022-10-22T07:06:02.122Z,11.23
2022-10-22T07:08:30.070Z,11.45
2022-10-22T07:10:59.132Z,11.52
2022-10-22T07:13:26.674Z,11.77
2022-10-22T07:15:55.087Z,11.43
2022-10-22T07:18:23.212Z,10.65
2022-10-22T07:20:51.185Z,11.95
2022-10-22T07:23:20.321Z,11.30
2022-10-22T07:25:48.018Z,10.27
2022-10-22T07:28:15.778Z,10.48
2022-10-22T07:30:43.465Z,11.73
2022-10-22T07:33:11.408Z,9.90
2022-10-22T07:35:39.918Z,11.70
2022-10-22T07:38:08.159Z,10.07
2022-10-22T07:40:37.233Z,11.25
2022-10-22T07:43:05.083Z,10.95
2022-10-22T07:45:33.636Z,12.27
2022-10-22T07:48:02.576Z,10.75
2022-10-22T07:50:30.365Z,10.77
2022-10-22T07:52:58.379Z,10.80
2022-10-22T07:55:26.322Z,10.60
2022-10-22T07:57:55.395Z,11.57
2022-10-22T08:00:25.235Z,10.90
2022-10-22T08:02:53.489Z,10.60
2022-10-22T08:05:20.985Z,9.73
2022-10-22T08:07:48.619Z,10.30
2022-10-22T08:10:16.258Z,10.77
2022-10-22T08:12:44.147Z,8.80
2022-10-22T08:15:13.417Z,9.07
2022-10-22T08:17:41.247Z,8.80
2022-10-22T08:20:09.883Z,10.35
2022-10-22T08:22:37.678Z,9.60
2022-10-22T08:25:05.982Z,9.70
2022-10-22T08:27:33.633Z,8.05
2022-10-22T08:30:01.191Z,8.75
2022-10-22T08:32:30.083Z,9.68
2022-10-22T08:34:57.742Z,9.95
2022-10-22T08:37:25.896Z,8.88
2022-10-22T08:39:53.746Z,8.88
2022-10-22T08:42:50.756Z,7.53
2022-10-22T08:45:24.870Z,7.93
2022-10-22T08:48:10.342Z,8.65
2022-10-22T08:50:40.869Z,9.38
2022-10-22T08:53:15.061Z,9.10
2022-10-22T08:55:43.660Z,8.40
2022-10-22T08:58:20.384Z,8.63
2022-10-22T09:00:56.750Z,8.23
2022-10-22T09:03:36.592Z,8.70
2022-10-22T09:06:11.601Z,9.70
2022-10-22T09:08:41.316Z,8.15
2022-10-22T09:11:20.946Z,8.85
2022-10-22T09:13:50.059Z,9.07
2022-10-22T09:16:20.401Z,8.18
2022-10-22T09:18:59.529Z,8.23
2022-10-22T09:21:35.677Z,8.32
2022-10-22T09:24:12.607Z,8.75
2022-10-22T09:26:42.084Z,8.45
2022-10-22T09:29:19.089Z,9.00
2022-10-22T09:31:46.738Z,9.13
2022-10-22T09:34:20.449Z,9.02
2022-10-22T09:36:48.197Z,9.68
2022-10-22T09:39:26.851Z,8.13
2022-10-22T09:41:54.737Z,9.40
2022-10-22T09:44:22.672Z,9.10
2022-10-22T09:46:50.292Z,9.73
2022-10-22T09:49:22.299Z,9.05
2022-10-22T09:51:53.730Z,9.57
2022-10-22T09:54:23.702Z,9.90
2022-10-22T09:56:57.383Z,9.43
2022-10-22T09:59:31.622Z,8.32
2022-10-22T10:02:13.543Z,8.70
2022-10-22T10:04:51.917Z,9.23
2022-10-22T10:07:21.886Z,9.07
2022-10-22T10:09:50.314Z,8.82
2022-10-22T10:12:29.094Z,8.02
2022-10-22T10:15:06.569Z,8.68
2022-10-22T10:17:42.108Z,7.95
2022-10-22T10:20:24.809Z,8.88
2022-10-22T10:22:59.579Z,8.35
2022-10-22T10:25:44.029Z,7.60
2022-10-22T10:28:22.678Z,9.13
2022-10-22T10:30:58.403Z,8.57
2022-10-22T10:33:39.508Z,7.85
2022-10-22T10:36:17.741Z,7.82
2022-10-22T10:38:56.481Z,8.50
2022-10-22T10:41:30.747Z,8.75
2022-10-22T10:44:20.828Z,8.95
2022-10-22T10:46:54.482Z,11.18
2022-10-22T10:49:26.783Z,10.48
2022-10-22T10:52:02.645Z,9.48
2022-10-22T10:54:45.820Z,9.57
2022-10-22T10:57:25.901Z,9.40
2022-10-22T11:00:06.187Z,9.02
2022-10-22T11:03:02.785Z,9.48
2022-10-22T11:05:38.306Z,9.43
2022-10-22T11:08:14.000Z,10.20
2022-10-22T11:10:45.912Z,8.50
2022-10-22T11:13:23.085Z,9.90
2022-10-22T11:15:56.639Z,8.00
2022-10-22T11:18:29.893Z,9.35
2022-10-22T11:21:08.458Z,8.40
2022-10-22T11:23:43.761Z,8.63
2022-10-22T11:26:19.098Z,9.45
2022-10-22T11:28:51.994Z,9.18
2022-10-22T11:31:20.296Z,8.02
2022-10-22T11:34:04.985Z,7.05
2022-10-22T11:36:44.298Z,6.88
2022-10-22T11:39:39.788Z,6.78
2022-10-22T11:42:10.855Z,5.93
2022-10-22T11:44:49.931Z,5.55
2022-10-22T11:47:21.759Z,6.65
2022-10-22T11:49:58.487Z,5.88
2022-10-22T11:52:38.265Z,6.03
2022-10-22T11:55:34.353Z,7.05
2022-10-22T11:58:22.830Z,5.63
2022-10-22T12:00:50.921Z,5.47
2022-10-22T12:03:24.863Z,5.13
2022-10-22T12:06:08.384Z,4.80
2022-10-22T12:08:44.250Z,4.40
2022-10-22T12:11:22.807Z,5.38
2022-10-22T12:14:13.870Z,4.78
2022-10-22T12:16:55.830Z,4.38
2022-10-22T12:19:31.133Z,3.95
2022-10-22T12:22:03.032Z,4.43
2022-10-22T12:24:35.587Z,4.35
2022-10-22T12:27:09.240Z,3.95
2022-10-22T12:29:37.456Z,3.83
2022-10-22T12:32:05.807Z,3.42
2022-10-22T12:34:33.339Z,3.05
2022-10-22T12:37:05.766Z,3.60
2022-10-22T12:39:35.351Z,3.47
2022-10-22T12:42:06.330Z,3.15
2022-10-22T12:44:34.991Z,3.30
2022-10-22T12:47:03.135Z,3.03
2022-10-22T12:49:40.963Z,3.05
2022-10-22T12:52:14.361Z,3.08
2022-10-22T12:54:42.433Z,3.55
2022-10-22T12:57:15.933Z,2.67
2022-10-22T12:59:49.570Z,3.33
2022-10-22T13:02:22.612Z,2.72
2022-10-22T13:05:17.660Z,2.60
2022-10-22T13:07:49.071Z,2.35
2022-10-22T13:10:21.570Z,2.60
2022-10-22T13:12:57.285Z,2.67
2022-10-22T13:15:38.358Z,2.20
2022-10-22T13:18:16.046Z,2.72
2022-10-22T13:20:55.312Z,2.20
2022-10-22T13:23:25.758Z,1.98
2022-10-22T13:26:03.153Z,2.72
2022-10-22T13:28:33.684Z,2.25
2022-10-22T13:31:03.903Z,2.40
2022-10-22T13:33:35.579Z,1.92
2022-10-22T13:36:04.175Z,2.55
2022-10-22T13:38:32.114Z,2.63
2022-10-22T13:41:00.277Z,2.85
2022-10-22T13:43:30.278Z,2.70
2022-10-22T13:46:01.506Z,2.70
2022-10-22T13:48:31.260Z,2.95
2022-10-22T13:50:59.258Z,2.92
2022-10-22T13:53:31.239Z,2.53
2022-10-22T13:55:59.353Z,2.60
2022-10-22T13:58:26.937Z,2.80
2022-10-22T14:00:56.995Z,2.65
2022-10-22T14:03:31.478Z,3.05
2022-10-22T14:05:59.507Z,2.53
2022-10-22T14:08:28.460Z,1.90
2022-10-22T14:10:56.484Z,2.10
2022-10-22T14:13:24.267Z,3.45
2022-10-22T14:15:53.253Z,2.47
2022-10-22T14:18:26.454Z,2.28
2022-10-22T14:20:57.953Z,2.45
2022-10-22T14:23:27.815Z,2.30
2022-10-22T14:25:56.042Z,1.90
2022-10-22T14:28:23.720Z,2.00
2022-10-22T14:30:52.440Z,2.47
2022-10-22T14:33:25.696Z,2.25
2022-10-22T14:35:56.459Z,1.85
2022-10-22T14:38:26.073Z,2.60
2022-10-22T14:40:53.528Z,2.20
2022-10-22T14:43:23.262Z,2.25
2022-10-22T14:45:52.656Z,2.20
2022-10-22T14:48:23.573Z,2.95
2022-10-22T14:50:51.549Z,2.20
2022-10-22T14:53:26.686Z,2.65
2022-10-22T14:55:57.875Z,2.13
2022-10-22T14:58:29.082Z,2.00
2022-10-22T15:00:59.300Z,2.38
2022-10-22T15:03:31.575Z,2.08
2022-10-22T15:06:03.516Z,2.30
2022-10-22T15:08:33.566Z,2.20
2022-10-22T15:11:04.041Z,2.00
2022-10-22T15:13:33.198Z,1.90
2022-10-22T15:16:01.501Z,1.90
2022-10-22T15:18:30.192Z,2.08
2022-10-22T15:20:59.839Z,1.75
2022-10-22T15:23:28.219Z,1.88
2022-10-22T15:25:57.727Z,2.47
2022-10-22T15:28:26.144Z,2.00
2022-10-22T15:30:55.342Z,2.10
2022-10-22T15:33:29.057Z,2.03
2022-10-22T15:35:58.658Z,1.73
2022-10-22T15:41:05.646Z,1.90
2022-10-22T15:43:34.267Z,1.83
2022-10-22T15:46:22.727Z,1.95
2022-10-22T15:48:57.920Z,2.40
2022-10-22T15:51:45.689Z,2.20
2022-10-22T15:54:23.981Z,1.73
2022-10-22T15:57:04.562Z,2.10
2022-10-22T16:02:31.303Z,2.35
2022-10-22T16:04:59.570Z,2.55
2022-10-22T16:07:28.191Z,2.53
2022-10-22T16:10:00.483Z,2.83
2022-10-22T16:12:29.832Z,2.70
2022-10-22T16:15:03.829Z,2.38
2022-10-22T16:17:32.377Z,3.28
2022-10-22T16:20:01.272Z,3.15
2022-10-22T16:22:29.361Z,3.63
2022-10-22T16:24:59.599Z,3.25
2022-10-22T16:27:29.004Z,4.25
2022-10-22T16:29:56.679Z,3.80
2022-10-22T16:32:24.472Z,4.00
2022-10-22T16:34:52.236Z,4.35
2022-10-22T16:37:19.869Z,3.90
2022-10-22T16:39:47.650Z,3.65
2022-10-22T16:42:16.017Z,4.03
2022-10-22T16:44:45.664Z,4.40
2022-10-22T16:47:13.506Z,4.15
2022-10-22T16:49:41.460Z,4.10
2022-10-22T16:52:12.456Z,3.63
2022-10-22T16:54:46.636Z,3.88
2022-10-22T16:57:24.661Z,3.60
2022-10-22T17:00:14.943Z,3.65
2022-10-22T17:02:45.105Z,4.18
2022-10-22T17:05:17.765Z,4.03
2022-10-22T17:07:45.685Z,4.32
2022-10-22T17:10:14.238Z,5.97
2022-10-22T17:12:43.751Z,4.95
2022-10-22T17:15:14.052Z,5.40
2022-10-22T17:17:42.318Z,5.00
2022-10-22T17:20:22.215Z,4.88
2022-10-22T17:22:53.180Z,6.45
2022-10-22T17:25:24.788Z,6.00
2022-10-22T17:27:55.398Z,5.43
2022-10-22T17:30:28.327Z,5.20
2022-10-22T17:32:56.204Z,4.60
2022-10-22T17:35:24.874Z,4.82
2022-10-22T17:37:53.073Z,5.88
2022-10-22T17:40:21.708Z,5.85
2022-10-22T17:42:49.790Z,4.70
2022-10-22T17:45:17.681Z,4.30
2022-10-22T17:47:47.148Z,3.97
2022-10-22T17:50:15.081Z,5.60
2022-10-22T17:52:43.168Z,5.78
2022-10-22T17:55:11.536Z,6.18
2022-10-22T17:57:39.384Z,6.60
2022-10-22T18:00:08.497Z,17.08
2022-10-22T18:02:36.378Z,21.30
2022-10-22T18:05:06.255Z,13.70
2022-10-22T18:07:34.366Z,12.00
2022-10-22T18:10:02.075Z,8.82
2022-10-22T18:12:29.777Z,8.32
2022-10-22T18:14:58.074Z,7.32
2022-10-22T18:17:27.504Z,7.13
2022-10-22T18:19:55.217Z,5.60
2022-10-22T18:22:24.865Z,7.55
2022-10-22T18:24:53.217Z,6.88
2022-10-22T18:27:20.959Z,6.93
2022-10-22T18:29:50.574Z,7.15
2022-10-22T18:32:18.495Z,6.82
2022-10-22T18:34:46.282Z,6.18
2022-10-22T18:37:13.998Z,6.38
2022-10-22T18:39:45.120Z,5.88
2022-10-22T18:44:48.169Z,6.30
2022-10-22T18:47:16.063Z,6.30
2022-10-22T18:49:43.693Z,4.95
2022-10-22T18:52:11.612Z,4.75
2022-10-22T18:54:47.651Z,5.68
2022-10-22T18:57:18.142Z,5.60
2022-10-22T18:59:46.156Z,5.15
2022-10-22T19:02:17.467Z,5.57
2022-10-22T19:04:48.604Z,4.40
2022-10-22T19:07:16.757Z,4.72
2022-10-22T19:09:44.731Z,4.88
2022-10-22T19:12:15.191Z,4.88
2022-10-22T19:14:44.583Z,4.70
2022-10-22T19:17:13.328Z,4.55
2022-10-22T19:19:41.044Z,6.28
2022-10-22T19:22:08.935Z,5.75
2022-10-22T19:24:37.273Z,5.47
2022-10-22T19:27:11.972Z,6.20
2022-10-22T19:29:44.625Z,5.72
2022-10-22T19:32:12.407Z,7.18
2022-10-22T19:34:43.073Z,6.20
2022-10-22T19:37:10.721Z,6.68
2022-10-22T19:39:38.693Z,6.03
2022-10-22T19:42:06.692Z,6.13
2022-10-22T19:44:34.790Z,6.18
2022-10-22T19:47:17.285Z,6.20
2022-10-22T19:49:44.927Z,6.28
2022-10-22T19:52:12.766Z,5.90
2022-10-22T19:54:42.426Z,6.38
2022-10-22T19:57:10.242Z,6.50
2022-10-22T19:59:43.132Z,6.38
2022-10-22T20:02:23.410Z,6.25
2022-10-22T20:04:51.074Z,6.82
2022-10-22T20:07:18.951Z,6.63
2022-10-22T20:09:47.007Z,6.68
2022-10-22T20:12:14.907Z,6.40
2022-10-22T20:14:42.820Z,7.53
2022-10-22T20:17:14.637Z,6.07
2022-10-22T20:19:43.799Z,6.75
2022-10-22T20:22:14.984Z,5.90
2022-10-22T20:24:46.653Z,6.78
2022-10-22T20:27:14.853Z,6.25
2022-10-22T20:29:42.624Z,6.18
2022-10-22T20:32:14.658Z,5.63
2022-10-22T20:34:44.582Z,6.28
2022-10-22T20:37:12.707Z,5.65
2022-10-22T20:39:40.619Z,6.30
2022-10-22T20:42:10.698Z,6.32
2022-10-22T20:44:38.632Z,5.85
2022-10-22T20:47:13.618Z,5.80
2022-10-22T20:49:57.544Z,6.07
2022-10-22T20:52:27.298Z,7.05
2022-10-22T20:54:54.938Z,5.68
2022-10-22T20:57:23.178Z,5.68
2022-10-22T20:59:51.520Z,5.65
2022-10-22T21:02:19.415Z,6.07
2022-10-22T21:04:53.278Z,5.78
2022-10-22T21:07:27.536Z,5.78
2022-10-22T21:09:57.569Z,5.68
2022-10-22T21:12:36.773Z,5.28
2022-10-22T21:15:07.775Z,5.85
2022-10-22T21:17:42.121Z,5.95
2022-10-22T21:20:12.739Z,5.97
2022-10-22T21:22:44.732Z,5.68
2022-10-22T21:25:23.453Z,6.25
2022-10-22T21:28:02.309Z,5.32
2022-10-22T21:30:30.554Z,5.60
2022-10-22T21:32:58.295Z,5.22
2022-10-22T21:35:27.148Z,5.75
2022-10-22T21:37:54.959Z,6.03
2022-10-22T21:40:34.627Z,5.93
2022-10-22T21:43:02.444Z,6.10
2022-10-22T21:45:31.381Z,6.07
2022-10-22T21:48:02.576Z,6.00
2022-10-22T21:50:31.177Z,5.95
2022-10-22T21:52:58.887Z,6.13
2022-10-22T21:58:25.109Z,6.00
2022-10-22T22:00:58.862Z,6.05
2022-10-22T22:03:30.590Z,6.35
2022-10-22T22:06:00.304Z,6.35
2022-10-22T22:08:31.341Z,6.78
2022-10-22T22:11:04.872Z,6.70
2022-10-22T22:13:38.161Z,5.93
2022-10-22T22:16:08.577Z,5.88
2022-10-22T22:18:40.089Z,6.18
2022-10-22T22:21:10.867Z,6.28
2022-10-22T22:23:39.523Z,5.68
2022-10-22T22:26:09.831Z,4.55
2022-10-22T22:28:38.487Z,5.10
2022-10-22T22:31:15.774Z,5.43
2022-10-22T22:33:43.828Z,5.68
2022-10-22T22:36:12.006Z,5.93
2022-10-22T22:38:40.576Z,5.43
2022-10-22T22:41:10.531Z,5.53
2022-10-22T22:43:38.970Z,6.30
2022-10-22T22:46:08.658Z,6.13
2022-10-22T22:51:32.830Z,5.72
2022-10-22T22:54:01.491Z,5.45
2022-10-22T22:56:32.551Z,6.63
2022-10-22T22:59:00.517Z,5.78
2022-10-22T23:01:33.314Z,5.53
2022-10-22T23:04:02.765Z,5.78
2022-10-22T23:06:33.443Z,5.63
2022-10-22T23:09:01.619Z,5.97
2022-10-22T23:11:31.778Z,5.32
2022-10-22T23:14:02.273Z,6.30
2022-10-22T23:16:32.253Z,6.90
2022-10-22T23:19:04.820Z,5.50
2022-10-22T23:21:35.059Z,6.40
2022-10-22T23:24:05.477Z,6.53
2022-10-22T23:26:36.582Z,6.15
2022-10-22T23:29:06.538Z,5.97
2022-10-22T23:31:34.937Z,6.28
2022-10-22T23:34:03.014Z,6.32
2022-10-22T23:39:24.858Z,7.32
2022-10-22T23:41:57.171Z,7.97
2022-10-22T23:44:25.373Z,8.40
2022-10-22T23:46:55.370Z,7.68
2022-10-22T23:49:23.593Z,9.20
2022-10-22T23:51:51.343Z,7.85
2022-10-22T23:54:19.253Z,7.70
2022-10-22T23:56:47.189Z,7.15
2022-10-22T23:59:16.612Z,8.38
